Hoskins, Nebraska
Current Conditions -  °F | °C
As of 3:56 PM on Monday 20 Oct 2014 (Local Time) from KOFK Reporting Station
Clear Clear  
Wind Chill: 72°   Ceiling: Unl
Heat Index: 72°   Visibility: 10mi
Dew Point: 34°   Wind: 6mph
Humidity: 25%   Direction: NA
Pressure: 30.05"   Gusts: NA
Location:  42.11°N, 97.31°W
Report Text: KOFK 202056Z AUTO VRB05KT 10SM CLR 22/01 A3005 RMK AO2 SLP174 T02220011 56019
Loading
Personal Weather Stations






























Interactive Weather Map
Tropical Storm Tracking
New forecast layout! Learn more

10-Day Weather Forecast

Advertisements
Track Severe Weather on mobile